ID Time Temp Humidity Light PM2.5 PM10 Voltage Extra Firmware Position Fcnt TTN version Gateways Distance RSSI LSNR Radiosettings
2026-05-09 08:47:33 13.6875°C 82.75% 3.34V v4 52.1052 / 5.11551 3883 ttn.v3 - -115 -13 868.3MHz, SF9BW125, 4/5CR
2026-05-09 08:31:19 12.125°C 86.9375% 3.34V v4 52.1052 / 5.11551 3882 ttn.v3 2.789km -103 3.75 867.3MHz, SF9BW125, 4/5CR
- -116 -4.25 867.3MHz, SF9BW125, 4/5CR
2026-05-09 07:58:52 9.375°C 93.875% 3.34V v4 52.1052 / 5.11551 3880 ttn.v3 2.789km -103 4.5 867.1MHz, SF9BW125, 4/5CR
- -117 -5.5 867.1MHz, SF9BW125, 4/5CR
- -115 -5.75 867.1MHz, SF9BW125, 4/5CR
- -129 -12 867.1MHz, SF9BW125, 4/5CR
2026-05-09 07:42:39 8.75°C 94.3125% 3.34V v4 52.1052 / 5.11551 3879 ttn.v3 - -118 -13 868.5MHz, SF9BW125, 4/5CR
- -114 -14.75 868.5MHz, SF9BW125, 4/5CR
2026-05-09 07:26:26 8.3125°C 95.375% 3.34V v4 52.1052 / 5.11551 3878 ttn.v3 - -113 -3.25 867.9MHz, SF9BW125, 4/5CR
2.789km -107 -6 867.9MHz, SF9BW125, 4/5CR
2026-05-09 06:54:01 7.9375°C 95.75% 3.34V v4 52.1052 / 5.11551 3876 ttn.v3 2.789km -104 0.75 867.7MHz, SF9BW125, 4/5CR
- -114 -13.5 867.7MHz, SF9BW125, 4/5CR
2026-05-09 06:21:36 7.875°C 95.75% 3.34V v4 52.1052 / 5.11551 3874 ttn.v3 - -114 -12.5 867.5MHz, SF9BW125, 4/5CR
2026-05-09 05:49:10 8°C 95.375% 3.34V v4 52.1052 / 5.11551 3872 ttn.v3 2.789km -92 0.25 867.3MHz, SF9BW125, 4/5CR
2026-05-09 05:16:45 8.1875°C 95% 3.34V v4 52.1052 / 5.11551 3870 ttn.v3 2.789km -105 -5 867.1MHz, SF9BW125, 4/5CR
- -117 -7.5 867.1MHz, SF9BW125, 4/5CR
2026-05-09 04:44:19 8.4375°C 94.5% 3.34V v4 52.1052 / 5.11551 3868 ttn.v3 2.789km -103 -5.75 867.9MHz, SF9BW125, 4/5CR
2026-05-09 04:28:06 8.5625°C 94.0625% 3.34V v4 52.1052 / 5.11551 3867 ttn.v3 - -111 -11 868.5MHz, SF9BW125, 4/5CR
2.789km -93 -14.25 868.5MHz, SF9BW125, 4/5CR
2026-05-09 04:11:53 8.8125°C 93.875% 3.34V v4 52.1052 / 5.11551 3866 ttn.v3 2.789km -102 2.25 867.7MHz, SF9BW125, 4/5CR
- -116 -2.25 867.7MHz, SF9BW125, 4/5CR
2026-05-09 03:39:27 9.125°C 93.1875% 3.34V v4 52.1052 / 5.11551 3864 ttn.v3 - -113 -12 867.5MHz, SF9BW125, 4/5CR
2026-05-09 03:23:14 9.25°C 92.9375% 3.34V v4 52.1052 / 5.11551 3863 ttn.v3 - -115 -11.75 868.1MHz, SF9BW125, 4/5CR
2026-05-09 03:07:01 9.5625°C 92.3125% 3.34V v4 52.1052 / 5.11551 3862 ttn.v3 2.789km -92 -10.25 867.3MHz, SF9BW125, 4/5CR
- -115 -14.5 867.3MHz, SF9BW125, 4/5CR
2026-05-09 02:50:48 9.75°C 92.125% 3.34V v4 52.1052 / 5.11551 3861 ttn.v3 - -110 -9.25 868.5MHz, SF9BW125, 4/5CR
2.789km -93 -13 868.5MHz, SF9BW125, 4/5CR
2026-05-09 02:34:35 10°C 91.8125% 3.34V v4 52.1052 / 5.11551 3860 ttn.v3 2.789km -99 -3.25 867.1MHz, SF9BW125, 4/5CR
- -115 -6.75 867.1MHz, SF9BW125, 4/5CR
- -129 -14.25 867.1MHz, SF9BW125, 4/5CR
2026-05-09 02:02:08 10.25°C 91.75% 3.34V v4 52.1052 / 5.11551 3858 ttn.v3 2.789km -111 -1.75 867.9MHz, SF9BW125, 4/5CR
- -114 -11.5 867.9MHz, SF9BW125, 4/5CR
2026-05-09 01:45:55 10.3125°C 91.6875% 3.34V v4 52.1052 / 5.11551 3857 ttn.v3 - -115 -8.5 868.1MHz, SF9BW125, 4/5CR
2026-05-09 01:13:28 10.5625°C 91.6875% 3.34V v4 52.1052 / 5.11551 3855 ttn.v3 - -111 -9.25 868.5MHz, SF9BW125, 4/5CR
2.789km -91 -12.75 868.5MHz, SF9BW125, 4/5CR
2026-05-09 00:57:15 10.75°C 91.5625% 3.34V v4 52.1052 / 5.11551 3854 ttn.v3 - -114 -12 867.5MHz, SF9BW125, 4/5CR
2026-05-09 00:41:01 10.9375°C 91.5% 3.34V v4 52.1052 / 5.11551 3853 ttn.v3 - -112 -8 868.3MHz, SF9BW125, 4/5CR
2.789km -95 -8.75 868.3MHz, SF9BW125, 4/5CR
2026-05-09 00:08:34 10.9375°C 91.4375% 3.34V v4 52.1052 / 5.11551 3851 ttn.v3 - -109 -8 868.1MHz, SF9BW125, 4/5CR
- -117 -9.75 868.1MHz, SF9BW125, 4/5CR
2026-05-08 23:52:21 11°C 91.375% 3.34V v4 52.1052 / 5.11551 3850 ttn.v3 2.789km -105 1.5 867.1MHz, SF9BW125, 4/5CR
2026-05-08 23:36:07 11.125°C 91.5% 3.34V v4 52.1052 / 5.11551 3849 ttn.v3 - -107 -4.75 868.5MHz, SF9BW125, 4/5CR
2.789km -92 -12 868.5MHz, SF9BW125, 4/5CR
2026-05-08 23:19:54 11.375°C 91.4375% 3.34V v4 52.1052 / 5.11551 3848 ttn.v3 2.789km -105 -5.5 867.9MHz, SF9BW125, 4/5CR
- -115 -10.25 867.9MHz, SF9BW125, 4/5CR
2026-05-08 23:03:40 11.5625°C 91.3125% 3.34V v4 52.1052 / 5.11551 3847 ttn.v3 - -113 -8.5 868.3MHz, SF9BW125, 4/5CR
- -109 -9.25 868.3MHz, SF9BW125, 4/5CR
2026-05-08 22:47:27 11.6875°C 91.4375% 3.34V v4 52.1052 / 5.11551 3846 ttn.v3 2.789km -101 -8.5 867.7MHz, SF9BW125, 4/5CR
2026-05-08 22:31:13 11.9375°C 91.1875% 3.34V v4 52.1052 / 5.11551 3845 ttn.v3 - -109 -5.75 868.1MHz, SF9BW125, 4/5CR
- -117 -9.5 868.1MHz, SF9BW125, 4/5CR
2026-05-08 22:14:59 12.25°C 91.3125% 3.34V v4 52.1052 / 5.11551 3844 ttn.v3 - -114 -12.25 867.5MHz, SF9BW125, 4/5CR
2026-05-08 21:58:45 12.5625°C 91.8125% 3.34V v4 52.1052 / 5.11551 3843 ttn.v3 - -107 -4.25 868.5MHz, SF9BW125, 4/5CR
- -115 -7.75 868.5MHz, SF9BW125, 4/5CR
2.789km -93 -10.5 868.5MHz, SF9BW125, 4/5CR
2026-05-08 21:42:31 13.0625°C 92.5% 3.34V v4 52.1052 / 5.11551 3842 ttn.v3 2.789km -104 -0.75 867.3MHz, SF9BW125, 4/5CR
2026-05-08 21:26:17 13.625°C 92.375% 3.34V v4 52.1052 / 5.11551 3841 ttn.v3 - -115 -8.25 868.3MHz, SF9BW125, 4/5CR
- -107 -11 868.3MHz, SF9BW125, 4/5CR
2026-05-08 21:10:03 13.9375°C 90.6875% 3.34V v4 52.1052 / 5.11551 3840 ttn.v3 2.789km -104 -2.25 867.1MHz, SF9BW125, 4/5CR
2026-05-08 20:53:48 14.375°C 88.75% 3.34V v4 52.1052 / 5.11551 3839 ttn.v3 - -117 -5.5 868.1MHz, SF9BW125, 4/5CR
- -114 -11.5 868.1MHz, SF9BW125, 4/5CR
2026-05-08 20:37:34 14.9375°C 82.625% 3.34V v4 52.1052 / 5.11551 3838 ttn.v3 - -112 -2.75 867.9MHz, SF9BW125, 4/5CR
2.789km -110 -3 867.9MHz, SF9BW125, 4/5CR
- -115 -13 867.9MHz, SF9BW125, 4/5CR
2026-05-08 20:22:11 15.125°C 82.875% 3.34V v4 52.1052 / 5.11551 3837 ttn.v3 - -107 -7 868.5MHz, SF12BW125, 4/5CR
2.789km -92 -11 868.5MHz, SF12BW125, 4/5CR
- -115 -11 868.5MHz, SF12BW125, 4/5CR
- -111 -17 868.5MHz, SF12BW125, 4/5CR
2026-05-08 20:05:08 15.5°C 81.0625% 3.34V v4 52.1053 / 5.11551 3836 ttn.v3 2.794km -104 -4.5 867.7MHz, SF9BW125, 4/5CR
- -114 -5 867.7MHz, SF9BW125, 4/5CR
- -114 -10.75 867.7MHz, SF9BW125, 4/5CR
2026-05-08 19:48:54 15.75°C 81.5% 3.34V v4 52.1053 / 5.11551 3835 ttn.v3 - -107 -8.25 868.3MHz, SF9BW125, 4/5CR
- -115 -10 868.3MHz, SF9BW125, 4/5CR
2026-05-08 19:32:39 15.9375°C 79.1875% 3.34V v4 52.1053 / 5.11551 3834 ttn.v3 - -115 -12 867.5MHz, SF9BW125, 4/5CR
2026-05-08 19:16:24 16.1875°C 76.9375% 3.34V v4 52.1053 / 5.11551 3833 ttn.v3 - -114 -4.25 868.1MHz, SF9BW125, 4/5CR
- -114 -10.25 868.1MHz, SF9BW125, 4/5CR
2026-05-08 19:00:09 16.4375°C 75.5625% 3.34V v4 52.1053 / 5.11551 3832 ttn.v3 2.794km -101 -5.5 867.3MHz, SF9BW125, 4/5CR
- -120 -14.25 867.3MHz, SF9BW125, 4/5CR
2026-05-08 18:43:54 16.4375°C 70.75% 3.34V v4 52.1053 / 5.11551 3831 ttn.v3 - -108 -5 868.5MHz, SF9BW125, 4/5CR
- -114 -10 868.5MHz, SF9BW125, 4/5CR
2026-05-08 18:11:24 16.4375°C 64.6875% 3.34V v4 52.1053 / 5.11551 3829 ttn.v3 - -115 -7.5 868.3MHz, SF9BW125, 4/5CR
- -107 -13.5 868.3MHz, SF9BW125, 4/5CR
2026-05-08 17:55:09 16.5625°C 66.6875% 3.34V v4 52.1053 / 5.11551 3828 ttn.v3 - -112 0.25 867.9MHz, SF9BW125, 4/5CR
2.794km -111 -5.25 867.9MHz, SF9BW125, 4/5CR
- -115 -8.5 867.9MHz, SF9BW125, 4/5CR
5.041km -132 -15.5 867.9MHz, SF9BW125, 4/5CR
2026-05-08 17:38:54 16.5625°C 64.5% 3.34V v4 52.1053 / 5.11551 3827 ttn.v3 - -113 -0.25 868.1MHz, SF9BW125, 4/5CR
2026-05-08 17:22:39 16.625°C 64.75% 3.34V v4 52.1053 / 5.11551 3826 ttn.v3 - -114 -5.5 867.7MHz, SF9BW125, 4/5CR
- -113 -7.75 867.7MHz, SF9BW125, 4/5CR
2026-05-08 17:06:24 16.8125°C 68.5625% 3.34V v4 52.1053 / 5.11551 3825 ttn.v3 - -108 -7.75 868.5MHz, SF9BW125, 4/5CR
- -114 -10 868.5MHz, SF9BW125, 4/5CR
2026-05-08 16:50:09 16.8125°C 66.75% 3.34V v4 52.1053 / 5.11551 3824 ttn.v3 - -115 -11.25 867.5MHz, SF9BW125, 4/5CR
2026-05-08 16:33:54 17°C 69% 3.34V v4 52.1053 / 5.11551 3823 ttn.v3 - -115 -8 868.3MHz, SF9BW125, 4/5CR
- -108 -13 868.3MHz, SF9BW125, 4/5CR
2026-05-08 16:17:39 16.875°C 70.75% 3.34V v4 52.1053 / 5.11551 3822 ttn.v3 2.794km -98 3.25 867.3MHz, SF9BW125, 4/5CR
2026-05-08 16:01:24 16.5625°C 71.5625% 3.34V v4 52.1053 / 5.11551 3821 ttn.v3 - -113 -5 868.1MHz, SF9BW125, 4/5CR
- -114 -8.5 868.1MHz, SF9BW125, 4/5CR
2026-05-08 15:28:54 16.4375°C 72.1875% 3.34V v4 52.1053 / 5.11551 3819 ttn.v3 - -110 -3.75 868.5MHz, SF9BW125, 4/5CR
- -113 -11.25 868.5MHz, SF9BW125, 4/5CR
2.794km -96 -11.75 868.5MHz, SF9BW125, 4/5CR
2026-05-08 15:12:39 16.5625°C 73.0625% 3.34V v4 52.1053 / 5.11551 3818 ttn.v3 - -114 -2.25 867.9MHz, SF9BW125, 4/5CR
- -115 -10 867.9MHz, SF9BW125, 4/5CR
2026-05-08 14:56:24 16.6875°C 74.375% 3.34V v4 52.1053 / 5.11551 3817 ttn.v3 - -115 -7.5 868.3MHz, SF9BW125, 4/5CR
- -106 -12 868.3MHz, SF9BW125, 4/5CR
2026-05-08 14:40:09 17.125°C 74% 3.34V v4 52.1053 / 5.11551 3816 ttn.v3 - -115 -10.75 867.7MHz, SF9BW125, 4/5CR
2026-05-08 14:23:53 17.25°C 72.5625% 3.34V v4 52.1053 / 5.11551 3815 ttn.v3 2.794km -108 -8.5 868.1MHz, SF9BW125, 4/5CR
- -131 -14.75 868.1MHz, SF9BW125, 4/5CR
2026-05-08 14:07:38 17.1875°C 73.1875% 3.34V v4 52.1053 / 5.11551 3814 ttn.v3 - -114 -5.75 867.5MHz, SF9BW125, 4/5CR
- -114 -12.75 867.5MHz, SF9BW125, 4/5CR
2026-05-08 13:51:23 17.0625°C 70.5% 3.34V v4 52.1053 / 5.11551 3813 ttn.v3 - -113 -6.5 868.5MHz, SF9BW125, 4/5CR
- -114 -10.25 868.5MHz, SF9BW125, 4/5CR
2026-05-08 13:35:08 17.125°C 72.25% 3.34V v4 52.1053 / 5.11551 3812 ttn.v3 2.794km -104 -1 867.3MHz, SF9BW125, 4/5CR
2026-05-08 13:18:53 16.9375°C 74.3125% 3.34V v4 52.1053 / 5.11551 3811 ttn.v3 - -115 -10.25 868.3MHz, SF9BW125, 4/5CR
2026-05-08 13:02:38 16.875°C 77.5625% 3.34V v4 52.1053 / 5.11551 3810 ttn.v3 2.794km -104 1.25 867.1MHz, SF9BW125, 4/5CR
- -117 -1.25 867.1MHz, SF9BW125, 4/5CR
- -115 -10.75 867.1MHz, SF9BW125, 4/5CR
2026-05-08 12:46:22 17.125°C 74.875% 3.34V v4 52.1053 / 5.11551 3809 ttn.v3 - -115 -8.5 868.1MHz, SF9BW125, 4/5CR
2.794km -107 -11.5 868.1MHz, SF9BW125, 4/5CR
- -120 -12 868.1MHz, SF9BW125, 4/5CR
2026-05-08 12:30:07 17.8125°C 77.5% 3.34V v4 52.1053 / 5.11551 3808 ttn.v3 - -111 1 867.9MHz, SF9BW125, 4/5CR
2.794km -107 0.75 867.9MHz, SF9BW125, 4/5CR
- -129 -12.5 867.9MHz, SF9BW125, 4/5CR
2026-05-08 12:13:52 17.4375°C 65.8125% 3.34V v4 52.1053 / 5.11551 3807 ttn.v3 - -114 -12.25 868.5MHz, SF9BW125, 4/5CR
2026-05-08 11:57:37 16.375°C 68.1875% 3.34V v4 52.1053 / 5.11551 3806 ttn.v3 2.794km -103 2.75 867.7MHz, SF9BW125, 4/5CR
- -114 -6.5 867.7MHz, SF9BW125, 4/5CR
2026-05-08 11:41:22 16.25°C 69.9375% 3.34V v4 52.1053 / 5.11551 3805 ttn.v3 - -114 -6.25 868.3MHz, SF9BW125, 4/5CR
2026-05-08 11:08:53 15.375°C 74.5625% 3.34V v4 52.1053 / 5.11551 3803 ttn.v3 - -115 -13.25 868.1MHz, SF9BW125, 4/5CR
2026-05-08 10:52:38 15.1875°C 76.8125% 3.34V v4 52.1053 / 5.11551 3802 ttn.v3 2.794km -92 -0.5 867.3MHz, SF9BW125, 4/5CR
- -115 -5.5 867.3MHz, SF9BW125, 4/5CR
2026-05-08 10:36:24 14.25°C 79.125% 3.34V v4 52.1053 / 5.11551 3801 ttn.v3 - -113 -6 868.5MHz, SF9BW125, 4/5CR
- -109 -9.75 868.5MHz, SF9BW125, 4/5CR
2.794km -95 -12 868.5MHz, SF9BW125, 4/5CR
2026-05-08 10:20:09 13.4375°C 81.9375% 3.34V v4 52.1053 / 5.11551 3800 ttn.v3 2.794km -104 6.5 867.1MHz, SF9BW125, 4/5CR
- -113 0.75 867.1MHz, SF9BW125, 4/5CR
- -130 -14 867.1MHz, SF9BW125, 4/5CR
2026-05-08 10:03:55 12.875°C 83.875% 3.34V v4 52.1053 / 5.11551 3799 ttn.v3 - -115 -12.5 868.3MHz, SF9BW125, 4/5CR
2026-05-08 09:47:42 12.25°C 85.75% 3.34V v4 52.1053 / 5.11551 3798 ttn.v3 2.794km -109 -0.5 867.9MHz, SF9BW125, 4/5CR
2026-05-08 09:31:28 11.6875°C 87.5625% 3.34V v4 52.1053 / 5.11551 3797 ttn.v3 - -115 -11.25 868.1MHz, SF9BW125, 4/5CR
5.041km -128 -13.5 868.1MHz, SF9BW125, 4/5CR
2026-05-08 09:15:14 11.25°C 89.375% 3.34V v4 52.1053 / 5.11551 3796 ttn.v3 2.794km -104 -2.25 867.7MHz, SF9BW125, 4/5CR
- -116 -6.75 867.7MHz, SF9BW125, 4/5CR
- -124 -8.75 867.7MHz, SF9BW125, 4/5CR
2026-05-08 08:59:01 10.75°C 90.375% 3.34V v4 52.1053 / 5.11551 3795 ttn.v3 - -104 0 868.5MHz, SF9BW125, 4/5CR
- -114 -8 868.5MHz, SF9BW125, 4/5CR
2.794km -92 -10 868.5MHz, SF9BW125, 4/5CR
2026-05-08 08:42:48 10.5°C 90.875% 3.34V v4 52.1053 / 5.11551 3794 ttn.v3 - -113 -12 867.5MHz, SF9BW125, 4/5CR
- -112 -13.25 867.5MHz, SF9BW125, 4/5CR
2026-05-08 08:26:34 10.3125°C 91.75% 3.34V v4 52.1053 / 5.11551 3793 ttn.v3 - -115 -10.5 868.3MHz, SF9BW125, 4/5CR
2026-05-08 08:10:21 10.0625°C 92.5625% 3.34V v4 52.1053 / 5.11551 3792 ttn.v3 2.794km -97 4.75 867.3MHz, SF9BW125, 4/5CR
2026-05-08 07:54:08 9.9375°C 92.3125% 3.34V v4 52.1053 / 5.11551 3791 ttn.v3 2.794km -104 -9.75 868.1MHz, SF9BW125, 4/5CR
- -120 -12.25 868.1MHz, SF9BW125, 4/5CR
2026-05-08 07:37:55 9.875°C 93.0625% 3.34V v4 52.1053 / 5.11551 3790 ttn.v3 2.794km -105 2 867.1MHz, SF9BW125, 4/5CR
- -115 -9.5 867.1MHz, SF9BW125, 4/5CR
2026-05-08 07:21:41 9.75°C 93.1875% 3.34V v4 52.1053 / 5.11551 3789 ttn.v3 - -115 -10 868.5MHz, SF9BW125, 4/5CR
2026-05-08 07:05:28 9.6875°C 93.0625% 3.34V v4 52.1053 / 5.11551 3788 ttn.v3 - -114 -3.25 867.9MHz, SF9BW125, 4/5CR
2.794km -109 -3.75 867.9MHz, SF9BW125, 4/5CR
2026-05-08 06:33:02 9.625°C 92.9375% 3.34V v4 52.1053 / 5.11551 3786 ttn.v3 2.794km -104 -8 867.7MHz, SF9BW125, 4/5CR
2026-05-08 06:16:49 9.6875°C 92.5625% 3.34V v4 52.1053 / 5.11551 3785 ttn.v3 2.794km -105 -3.25 868.1MHz, SF9BW125, 4/5CR
- -129 -12.75 868.1MHz, SF9BW125, 4/5CR
2026-05-08 05:44:22 10°C 91.9375% 3.34V v4 52.1053 / 5.11551 3783 ttn.v3 - -107 -3.25 868.5MHz, SF9BW125, 4/5CR
2.794km -93 -10.25 868.5MHz, SF9BW125, 4/5CR
- -114 -11.25 868.5MHz, SF9BW125, 4/5CR
2026-05-08 05:28:09 10.0625°C 91.9375% 3.34V v4 52.1053 / 5.11551 3782 ttn.v3 2.794km -98 -2 867.3MHz, SF9BW125, 4/5CR
2026-05-08 05:11:56 10.125°C 92% 3.34V v4 52.1053 / 5.11551 3781 ttn.v3 - -107 -6.25 868.3MHz, SF9BW125, 4/5CR
2.794km -98 -8.25 868.3MHz, SF9BW125, 4/5CR
- -115 -8.75 868.3MHz, SF9BW125, 4/5CR
2026-05-08 04:55:43 10.25°C 92% 3.34V v4 52.1053 / 5.11551 3780 ttn.v3 2.794km -104 -0.5 867.1MHz, SF9BW125, 4/5CR
- -113 -2.75 867.1MHz, SF9BW125, 4/5CR
- -115 -10 867.1MHz, SF9BW125, 4/5CR
5.041km -129 -13.5 867.1MHz, SF9BW125, 4/5CR
2026-05-08 04:39:29 10.3125°C 91.875% 3.34V v4 52.1053 / 5.11551 3779 ttn.v3 - -110 -3.5 868.1MHz, SF9BW125, 4/5CR
- -117 -9.5 868.1MHz, SF9BW125, 4/5CR
- -114 -11 868.1MHz, SF9BW125, 4/5CR
2026-05-08 04:07:03 10.5°C 91.9375% 3.34V v4 52.1053 / 5.11551 3777 ttn.v3 - -108 -3 868.5MHz, SF9BW125, 4/5CR
2.794km -93 -8 868.5MHz, SF9BW125, 4/5CR
- -115 -9 868.5MHz, SF9BW125, 4/5CR
2026-05-08 03:50:49 10.5625°C 91.875% 3.34V v4 52.1053 / 5.11551 3776 ttn.v3 - -106 7 867.7MHz, SF9BW125, 4/5CR
- -125 -8.5 867.7MHz, SF9BW125, 4/5CR
2026-05-08 03:34:36 10.6875°C 91.625% 3.34V v4 52.1053 / 5.11551 3775 ttn.v3 2.794km -84 -8.25 868.3MHz, SF9BW125, 4/5CR
- -113 -8.5 868.3MHz, SF9BW125, 4/5CR
- -108 -9.75 868.3MHz, SF9BW125, 4/5CR
2026-05-08 02:45:55 11.125°C 91.75% 3.34V v4 52.1053 / 5.11551 3772 ttn.v3 2.794km -105 -4 867.3MHz, SF9BW125, 4/5CR
2026-05-08 02:13:28 11.375°C 91.75% 3.34V v4 52.1053 / 5.11551 3770 ttn.v3 - -108 3.25 867.1MHz, SF9BW125, 4/5CR
2.794km -105 1.25 867.1MHz, SF9BW125, 4/5CR
- -127 -10.5 867.1MHz, SF9BW125, 4/5CR
- -115 -11 867.1MHz, SF9BW125, 4/5CR
2026-05-08 01:57:15 11.5°C 91.8125% 3.34V v4 52.1053 / 5.11551 3769 ttn.v3 - -110 -9.75 868.3MHz, SF9BW125, 4/5CR
- -115 -12.25 868.3MHz, SF9BW125, 4/5CR
2026-05-08 01:41:01 11.625°C 91.5% 3.34V v4 52.1053 / 5.11551 3768 ttn.v3 - -113 -1 867.9MHz, SF9BW125, 4/5CR
- -113 -11.25 867.9MHz, SF9BW125, 4/5CR
2026-05-08 01:24:47 11.6875°C 91.5% 3.34V v4 52.1053 / 5.11551 3767 ttn.v3 - -115 -12 868.1MHz, SF9BW125, 4/5CR
5.041km -129 -15.5 868.1MHz, SF9BW125, 4/5CR
2026-05-08 01:08:34 11.8125°C 92.0625% 3.34V v4 52.1053 / 5.11551 3766 ttn.v3 2.794km -105 -9.25 867.7MHz, SF9BW125, 4/5CR
2026-05-08 00:52:20 11.9375°C 92.0625% 3.34V v4 52.1053 / 5.11551 3765 ttn.v3 - -107 -4.75 868.5MHz, SF9BW125, 4/5CR
- -115 -8.25 868.5MHz, SF9BW125, 4/5CR
2.794km -95 -10 868.5MHz, SF9BW125, 4/5CR
2026-05-08 00:19:53 12.1875°C 92.375% 3.34V v4 52.1053 / 5.11551 3763 ttn.v3 - -115 -7 868.3MHz, SF9BW125, 4/5CR
2.794km -99 -8.25 868.3MHz, SF9BW125, 4/5CR
2026-05-07 23:47:25 12.5°C 92.625% 3.34V v4 52.1053 / 5.11551 3761 ttn.v3 2.794km -104 0.75 868.1MHz, SF9BW125, 4/5CR
- -107 -6 868.1MHz, SF9BW125, 4/5CR
2026-05-07 23:31:11 12.625°C 92.5625% 3.34V v4 52.1053 / 5.11551 3760 ttn.v3 2.794km -103 7.5 867.1MHz, SF9BW125, 4/5CR
- -114 -0.5 867.1MHz, SF9BW125, 4/5CR
2026-05-07 23:14:57 12.8125°C 91.75% 3.34V v4 52.1053 / 5.11551 3759 ttn.v3 - -114 -10.75 868.5MHz, SF9BW125, 4/5CR
- -104 -11 868.5MHz, SF9BW125, 4/5CR
2026-05-07 22:58:43 12.9375°C 91.1875% 3.34V v4 52.1053 / 5.11551 3758 ttn.v3 - -105 5.5 867.9MHz, SF9BW125, 4/5CR
2.794km -107 2.25 867.9MHz, SF9BW125, 4/5CR
- -114 -13 867.9MHz, SF9BW125, 4/5CR
5.041km -130 -13.5 867.9MHz, SF9BW125, 4/5CR
2026-05-07 22:42:29 13.0625°C 90.3125% 3.34V v4 52.1053 / 5.11551 3757 ttn.v3 - -104 -2 868.3MHz, SF9BW125, 4/5CR
2026-05-07 22:26:15 13.1875°C 89% 3.34V v4 52.1053 / 5.11551 3756 ttn.v3 - -115 -13 867.7MHz, SF9BW125, 4/5CR
- -105 -14.5 867.7MHz, SF9BW125, 4/5CR
2026-05-07 22:10:01 13.375°C 87.3125% 3.34V v4 52.1053 / 5.11551 3755 ttn.v3 - -103 5.5 868.1MHz, SF9BW125, 4/5CR
2.794km -105 -2.5 868.1MHz, SF9BW125, 4/5CR
- -115 -11.75 868.1MHz, SF9BW125, 4/5CR
2026-05-07 21:37:33 13.6875°C 85.0625% 3.34V v4 52.1053 / 5.11551 3753 ttn.v3 - -105 1 868.5MHz, SF9BW125, 4/5CR
2.794km -92 -9.75 868.5MHz, SF9BW125, 4/5CR
2026-05-07 21:21:18 13.8125°C 84.5% 3.34V v4 52.1053 / 5.11551 3752 ttn.v3 2.794km -101 5 867.3MHz, SF9BW125, 4/5CR
- -109 0 867.3MHz, SF9BW125, 4/5CR
2026-05-07 21:05:04 13.9375°C 83.6875% 3.34V v4 52.1053 / 5.11551 3751 ttn.v3 - -103 -9.75 868.3MHz, SF9BW125, 4/5CR
- -111 -11.5 868.3MHz, SF9BW125, 4/5CR
2026-05-07 20:48:50 14.125°C 83% 3.34V v4 52.1053 / 5.11551 3750 ttn.v3 2.794km -101 6.5 867.1MHz, SF9BW125, 4/5CR
- -107 -4 867.1MHz, SF9BW125, 4/5CR
- -129 -12.5 867.1MHz, SF9BW125, 4/5CR
2026-05-07 20:32:35 14.3125°C 82.375% 3.34V v4 52.1053 / 5.11551 3749 ttn.v3 - -104 2 868.1MHz, SF9BW125, 4/5CR
2.794km -101 -5.75 868.1MHz, SF9BW125, 4/5CR
- -117 -10.5 868.1MHz, SF9BW125, 4/5CR
5.041km -129 -15.25 868.1MHz, SF9BW125, 4/5CR
2026-05-07 20:16:21 14.4375°C 83.875% 3.34V v4 52.1053 / 5.11551 3748 ttn.v3 2.794km -105 -3.5 867.9MHz, SF9BW125, 4/5CR
- -117 -9.75 867.9MHz, SF9BW125, 4/5CR
2026-05-07 20:00:06 14.6875°C 78.4375% 3.34V v4 52.1053 / 5.11551 3747 ttn.v3 - -105 0 868.5MHz, SF9BW125, 4/5CR
- -115 -10.75 868.5MHz, SF9BW125, 4/5CR
2026-05-07 19:43:52 14.8125°C 75.375% 3.34V v4 52.1053 / 5.11551 3746 ttn.v3 - -114 -12 867.7MHz, SF9BW125, 4/5CR
2026-05-07 19:27:37 14.9375°C 76.0625% 3.34V v4 52.1053 / 5.11551 3745 ttn.v3 - -115 -10.5 868.3MHz, SF9BW125, 4/5CR
- -107 -10.75 868.3MHz, SF9BW125, 4/5CR
2026-05-07 18:55:08 15.1875°C 72.125% 3.34V v4 52.1053 / 5.11551 3743 ttn.v3 - -109 -3 868.1MHz, SF9BW125, 4/5CR
2.794km -104 -6.75 868.1MHz, SF9BW125, 4/5CR
- -117 -12.25 868.1MHz, SF9BW125, 4/5CR
2026-05-07 18:23:29 15.6875°C 70.5625% 3.34V v4 52.1053 / 5.11551 3741 ttn.v3 - -105 -3.25 868.5MHz, SF12BW125, 4/5CR
2.794km -95 -9.5 868.5MHz, SF12BW125, 4/5CR
- -114 -15 868.5MHz, SF12BW125, 4/5CR
- -113 -15 868.5MHz, SF12BW125, 4/5CR
- -136 -22.75 868.5MHz, SF12BW125, 4/5CR
2026-05-07 18:06:28 16.1875°C 69.4375% 3.34V v4 No position 3740 ttn.v3 - -101 6 867.1MHz, SF9BW125, 4/5CR
- -131 -14.25 867.1MHz, SF9BW125, 4/5CR
2026-05-07 17:50:13 16.6875°C 65.4375% 3.34V v4 No position 3739 ttn.v3 - -115 -9 868.3MHz, SF9BW125, 4/5CR
2026-05-07 17:33:57 17.75°C 64.3125% 3.34V v4 No position 3738 ttn.v3 - -112 2.75 867.9MHz, SF9BW125, 4/5CR
- -109 -4.75 867.9MHz, SF9BW125, 4/5CR
- -117 -12 867.9MHz, SF9BW125, 4/5CR
- -114 -13.5 867.9MHz, SF9BW125, 4/5CR
2026-05-07 17:17:42 16.8125°C 67.6875% 3.34V v4 No position 3737 ttn.v3 - -107 -2.25 868.1MHz, SF9BW125, 4/5CR
- -109 -6.25 868.1MHz, SF9BW125, 4/5CR
- -128 -12.75 868.1MHz, SF9BW125, 4/5CR
2026-05-07 17:01:27 16.4375°C 68.25% 3.34V v4 No position 3736 ttn.v3 - -101 0.25 867.7MHz, SF9BW125, 4/5CR
- -107 0 867.7MHz, SF9BW125, 4/5CR
2026-05-07 16:45:12 16.125°C 69.4375% 3.34V v4 No position 3735 ttn.v3 - -112 -7.25 868.5MHz, SF9BW125, 4/5CR
- -113 -8.75 868.5MHz, SF9BW125, 4/5CR
2026-05-07 15:56:27 16.5°C 68.125% 3.34V v4 No position 3732 ttn.v3 - -101 2.5 867.3MHz, SF9BW125, 4/5CR
- -108 -5.75 867.3MHz, SF9BW125, 4/5CR
- -129 -14 867.3MHz, SF9BW125, 4/5CR
2026-05-07 15:40:12 16.8125°C 65.4375% 3.34V v4 No position 3731 ttn.v3 - -107 -4.5 868.1MHz, SF9BW125, 4/5CR
- -112 -4.5 868.1MHz, SF9BW125, 4/5CR
- -127 -13 868.1MHz, SF9BW125, 4/5CR
2026-05-07 15:23:57 16.6875°C 64.625% 3.34V v4 No position 3730 ttn.v3 - -99 7 867.1MHz, SF9BW125, 4/5CR
- -114 0.25 867.1MHz, SF9BW125, 4/5CR
- -126 -9 867.1MHz, SF9BW125, 4/5CR
2026-05-07 15:07:42 17.1875°C 67.0625% 3.34V v4 No position 3729 ttn.v3 - -115 -9 868.5MHz, SF9BW125, 4/5CR
- -94 -9.5 868.5MHz, SF9BW125, 4/5CR
- -112 -10.25 868.5MHz, SF9BW125, 4/5CR
2026-05-07 14:35:11 17.0625°C 66.1875% 3.34V v4 No position 3727 ttn.v3 - -114 -8.5 868.3MHz, SF9BW125, 4/5CR
- -113 -13.5 868.3MHz, SF9BW125, 4/5CR
2026-05-07 14:18:56 17.375°C 64.25% 3.34V v4 No position 3726 ttn.v3 - -112 -12 867.7MHz, SF9BW125, 4/5CR
2026-05-07 14:02:41 17.875°C 64% 3.34V v4 No position 3725 ttn.v3 - -115 -10.25 868.1MHz, SF9BW125, 4/5CR
2026-05-07 13:46:25 18°C 66.5% 3.34V v4 No position 3724 ttn.v3 - -114 -12 867.5MHz, SF9BW125, 4/5CR
2026-05-07 13:30:10 17.4375°C 67.6875% 3.34V v4 No position 3723 ttn.v3 - -114 -9.25 868.5MHz, SF9BW125, 4/5CR
- -94 -11.25 868.5MHz, SF9BW125, 4/5CR
2026-05-07 13:13:55 16.5°C 70.75% 3.34V v4 No position 3722 ttn.v3 - -103 4.25 867.3MHz, SF9BW125, 4/5CR
- -107 2 867.3MHz, SF9BW125, 4/5CR
- -114 -8.25 867.3MHz, SF9BW125, 4/5CR
2026-05-07 12:57:41 15.5°C 76.1875% 3.34V v4 No position 3721 ttn.v3 - -114 -9.5 868.3MHz, SF9BW125, 4/5CR
2026-05-07 12:41:26 15.25°C 75.8125% 3.34V v4 No position 3720 ttn.v3 - -113 -0.5 867.1MHz, SF9BW125, 4/5CR
- -114 -13.25 867.1MHz, SF9BW125, 4/5CR
2026-05-07 12:25:11 15.5625°C 72% 3.34V v4 No position 3719 ttn.v3 - -114 -10.25 868.1MHz, SF9BW125, 4/5CR
- -127 -12 868.1MHz, SF9BW125, 4/5CR
2026-05-07 12:08:56 16.5°C 71.875% 3.34V v4 No position 3718 ttn.v3 - -108 -2.5 867.9MHz, SF9BW125, 4/5CR
- -115 -3 867.9MHz, SF9BW125, 4/5CR
2026-05-07 11:52:41 16.75°C 72.75% 3.34V v4 No position 3717 ttn.v3 - -114 -13.75 868.5MHz, SF9BW125, 4/5CR
2026-05-07 11:36:26 16.25°C 72.6875% 3.34V v4 No position 3716 ttn.v3 - -102 1.25 867.7MHz, SF9BW125, 4/5CR
- -112 -1.25 867.7MHz, SF9BW125, 4/5CR
- -114 -9.25 867.7MHz, SF9BW125, 4/5CR
- -112 -11.75 867.7MHz, SF9BW125, 4/5CR
2026-05-07 11:20:11 16.0625°C 74.875% 3.34V v4 No position 3715 ttn.v3 - -114 -8.75 868.3MHz, SF9BW125, 4/5CR
- -115 -9.75 868.3MHz, SF9BW125, 4/5CR
2026-05-07 10:47:41 15.6875°C 67.0625% 3.34V v4 No position 3713 ttn.v3 - -109 -6.25 868.1MHz, SF9BW125, 4/5CR
- -114 -12 868.1MHz, SF9BW125, 4/5CR
- -117 -12.25 868.1MHz, SF9BW125, 4/5CR
- -128 -14 868.1MHz, SF9BW125, 4/5CR
2026-05-07 10:31:27 15.25°C 66.3125% 3.34V v4 No position 3712 ttn.v3 - -104 -1.5 867.3MHz, SF9BW125, 4/5CR
2026-05-07 10:15:12 15°C 70.5% 3.34V v4 No position 3711 ttn.v3 - -111 -10.75 868.5MHz, SF9BW125, 4/5CR
- -113 -11.75 868.5MHz, SF9BW125, 4/5CR
2026-05-07 09:58:58 14.25°C 69.5625% 3.34V v4 No position 3710 ttn.v3 - -102 -1.25 867.1MHz, SF9BW125, 4/5CR
- -121 -8.25 867.1MHz, SF9BW125, 4/5CR
- -114 -12.75 867.1MHz, SF9BW125, 4/5CR
2026-05-07 09:42:44 13.9375°C 73.8125% 3.34V v4 No position 3709 ttn.v3 - -112 -9.25 868.3MHz, SF9BW125, 4/5CR
- -114 -9.25 868.3MHz, SF9BW125, 4/5CR
2026-05-07 09:26:30 13.6875°C 75.25% 3.34V v4 No position 3708 ttn.v3 - -116 -4 867.9MHz, SF9BW125, 4/5CR
- -108 -5 867.9MHz, SF9BW125, 4/5CR
- -115 -11.5 867.9MHz, SF9BW125, 4/5CR
- -129 -13.25 867.9MHz, SF9BW125, 4/5CR
2026-05-07 09:10:15 14.0625°C 72.625% 3.34V v4 No position 3707 ttn.v3 - -117 -11.5 868.1MHz, SF9BW125, 4/5CR
- -128 -12.5 868.1MHz, SF9BW125, 4/5CR
2026-05-07 08:54:01 13.5°C 77.625% 3.34V v4 No position 3706 ttn.v3 - -105 -9 867.7MHz, SF9BW125, 4/5CR
- -124 -10.25 867.7MHz, SF9BW125, 4/5CR
2026-05-07 08:37:47 12.125°C 82.125% 3.34V v4 No position 3705 ttn.v3 - -106 -1.5 868.5MHz, SF9BW125, 4/5CR
- -112 -7 868.5MHz, SF9BW125, 4/5CR
2026-05-07 08:21:34 10.8125°C 87.875% 3.34V v4 No position 3704 ttn.v3 - -114 -12 867.5MHz, SF9BW125, 4/5CR
2026-05-07 07:49:07 8.6875°C 93.25% 3.34V v4 No position 3702 ttn.v3 - -103 4.75 867.3MHz, SF9BW125, 4/5CR
2026-05-07 07:32:55 8.375°C 93.6875% 3.34V v4 No position 3701 ttn.v3 - -105 -6.25 868.1MHz, SF9BW125, 4/5CR
2026-05-07 07:16:42 8.25°C 93.875% 3.34V v4 No position 3700 ttn.v3 - -102 -2 867.1MHz, SF9BW125, 4/5CR
2026-05-07 07:00:29 8.25°C 94.125% 3.34V v4 No position 3699 ttn.v3 - -107 -4.25 868.5MHz, SF9BW125, 4/5CR
- -95 -12 868.5MHz, SF9BW125, 4/5CR
2026-05-07 06:44:16 8.125°C 94.5625% 3.34V v4 No position 3698 ttn.v3 - -113 -0.75 867.9MHz, SF9BW125, 4/5CR
- -109 -3.5 867.9MHz, SF9BW125, 4/5CR
- -130 -13.75 867.9MHz, SF9BW125, 4/5CR
2026-05-07 06:28:04 8°C 94.9375% 3.34V v4 No position 3697 ttn.v3 - -110 -13.75 868.3MHz, SF9BW125, 4/5CR
2026-05-07 06:11:51 7.75°C 95.0625% 3.34V v4 No position 3696 ttn.v3 - -103 -3.25 867.7MHz, SF9BW125, 4/5CR
- -116 -6.75 867.7MHz, SF9BW125, 4/5CR
2026-05-07 05:55:38 7.625°C 95.0625% 3.34V v4 No position 3695 ttn.v3 - -115 -1.75 868.1MHz, SF9BW125, 4/5CR
- -107 -7 868.1MHz, SF9BW125, 4/5CR
- -128 -13.25 868.1MHz, SF9BW125, 4/5CR
2026-05-07 05:23:13 7.5625°C 95% 3.34V v4 No position 3693 ttn.v3 - -107 -3.25 868.5MHz, SF9BW125, 4/5CR
- -95 -11.5 868.5MHz, SF9BW125, 4/5CR
2026-05-07 05:07:00 7.5°C 94.5625% 3.34V v4 No position 3692 ttn.v3 - -99 -1.75 867.3MHz, SF9BW125, 4/5CR
2026-05-07 04:34:35 7.6875°C 93.6875% 3.34V v4 No position 3690 ttn.v3 - -103 -3.25 867.1MHz, SF9BW125, 4/5CR
2026-05-07 04:02:10 7.9375°C 92.4375% 3.34V v4 No position 3688 ttn.v3 - -109 -9 867.9MHz, SF9BW125, 4/5CR
2026-05-07 03:45:57 8.1875°C 92.4375% 3.34V v4 No position 3687 ttn.v3 - -107 -5.25 868.5MHz, SF9BW125, 4/5CR
2026-05-07 03:29:44 8.375°C 92.5625% 3.34V v4 No position 3686 ttn.v3 - -103 -3 867.7MHz, SF9BW125, 4/5CR
- -112 -12.25 867.7MHz, SF9BW125, 4/5CR
- -129 -13.5 867.7MHz, SF9BW125, 4/5CR
2026-05-07 03:13:31 8.625°C 92.3125% 3.34V v4 No position 3685 ttn.v3 - -113 -9.75 868.3MHz, SF9BW125, 4/5CR
2026-05-07 02:57:19 8.6875°C 92.4375% 3.34V v4 No position 3684 ttn.v3 - -114 -12.5 867.5MHz, SF9BW125, 4/5CR
2026-05-07 02:41:05 8.8125°C 92.125% 3.34V v4 No position 3683 ttn.v3 - -111 -5 868.1MHz, SF9BW125, 4/5CR
- -101 -6.25 868.1MHz, SF9BW125, 4/5CR
- -129 -13.25 868.1MHz, SF9BW125, 4/5CR
- -117 -13.25 868.1MHz, SF9BW125, 4/5CR
2026-05-07 02:24:52 9°C 92.375% 3.34V v4 No position 3682 ttn.v3 - -99 -2 867.3MHz, SF9BW125, 4/5CR
- -114 -11.5 867.3MHz, SF9BW125, 4/5CR
2026-05-07 02:08:39 9.25°C 92.625% 3.34V v4 No position 3681 ttn.v3 - -106 -2.5 868.5MHz, SF9BW125, 4/5CR
- -94 -8.75 868.5MHz, SF9BW125, 4/5CR
- -114 -13.25 868.5MHz, SF9BW125, 4/5CR
2026-05-07 01:52:26 9.5625°C 93.125% 3.34V v4 No position 3680 ttn.v3 - -105 -1.25 867.1MHz, SF9BW125, 4/5CR
2026-05-07 01:36:13 9.875°C 94.0625% 3.34V v4 No position 3679 ttn.v3 - -98 -11 868.3MHz, SF9BW125, 4/5CR
2026-05-07 01:20:00 10.25°C 93.5% 3.34V v4 No position 3678 ttn.v3 - -107 0 867.9MHz, SF9BW125, 4/5CR
- -111 -7.25 867.9MHz, SF9BW125, 4/5CR
2026-05-07 00:47:33 10.625°C 93.875% 3.34V v4 No position 3676 ttn.v3 - -99 5 867.7MHz, SF9BW125, 4/5CR
2026-05-07 00:31:20 10.75°C 94.3125% 3.34V v4 No position 3675 ttn.v3 - -107 -3.25 868.5MHz, SF9BW125, 4/5CR
- -114 -11.25 868.5MHz, SF9BW125, 4/5CR
2026-05-06 23:58:53 11.0625°C 94.3125% 3.34V v4 No position 3673 ttn.v3 - -106 -6 868.3MHz, SF9BW125, 4/5CR
- -91 -12 868.3MHz, SF9BW125, 4/5CR
- -113 -13.25 868.3MHz, SF9BW125, 4/5CR
2026-05-06 23:42:39 11.1875°C 94.25% 3.34V v4 No position 3672 ttn.v3 - -99 4.25 867.3MHz, SF9BW125, 4/5CR
- -115 -12.5 867.3MHz, SF9BW125, 4/5CR
2026-05-06 23:26:26 11.3125°C 93.625% 3.34V v4 No position 3671 ttn.v3 - -117 -12.75 868.1MHz, SF9BW125, 4/5CR
- -113 -13.25 868.1MHz, SF9BW125, 4/5CR
- -120 -13.5 868.1MHz, SF9BW125, 4/5CR
2026-05-06 23:10:12 11.375°C 93.5% 3.34V v4 No position 3670 ttn.v3 - -103 -2 867.1MHz, SF9BW125, 4/5CR
- -114 -9.75 867.1MHz, SF9BW125, 4/5CR
2026-05-06 22:53:59 11.5°C 92.875% 3.34V v4 No position 3669 ttn.v3 - -111 -4.75 868.5MHz, SF9BW125, 4/5CR
2026-05-06 22:37:45 11.6875°C 92.9375% 3.34V v4 No position 3668 ttn.v3 - -107 1 867.9MHz, SF9BW125, 4/5CR
- -110 0.75 867.9MHz, SF9BW125, 4/5CR
- -114 -9.25 867.9MHz, SF9BW125, 4/5CR
- -128 -12.25 867.9MHz, SF9BW125, 4/5CR
- -119 -13 867.9MHz, SF9BW125, 4/5CR
2026-05-06 22:21:31 11.875°C 93.1875% 3.34V v4 No position 3667 ttn.v3 - -112 -9.25 868.3MHz, SF9BW125, 4/5CR
- -110 -9.75 868.3MHz, SF9BW125, 4/5CR
2026-05-06 22:05:18 12.0625°C 92.875% 3.34V v4 No position 3666 ttn.v3 - -105 0.75 867.7MHz, SF9BW125, 4/5CR
- -113 -0.5 867.7MHz, SF9BW125, 4/5CR
- -115 -8.75 867.7MHz, SF9BW125, 4/5CR
2026-05-06 21:49:04 12.1875°C 92.3125% 3.34V v4 No position 3665 ttn.v3 - -105 -2 868.1MHz, SF9BW125, 4/5CR
- -106 -14.75 868.1MHz, SF9BW125, 4/5CR
2026-05-06 21:32:50 12.375°C 90.6875% 3.34V v4 No position 3664 ttn.v3 - -91 -7.25 867.5MHz, SF9BW125, 4/5CR
2026-05-06 21:16:36 12.375°C 86.125% 3.34V v4 No position 3663 ttn.v3 - -109 -7 868.5MHz, SF9BW125, 4/5CR
2026-05-06 20:27:54 12.75°C 81.25% 3.34V v4 No position 3660 ttn.v3 - -99 6.25 867.1MHz, SF9BW125, 4/5CR
- -130 -13.75 867.1MHz, SF9BW125, 4/5CR
2026-05-06 20:11:40 12.9375°C 78.9375% 3.34V v4 No position 3659 ttn.v3 - -107 -2.75 868.1MHz, SF9BW125, 4/5CR
2026-05-06 19:55:27 13.1875°C 79.1875% 3.34V v4 No position 3658 ttn.v3 - -102 0 867.9MHz, SF9BW125, 4/5CR
- -113 -4 867.9MHz, SF9BW125, 4/5CR
2026-05-06 19:39:12 13.4375°C 75.875% 3.34V v4 No position 3657 ttn.v3 - -106 -7.25 868.5MHz, SF9BW125, 4/5CR
- -93 -8.5 868.5MHz, SF9BW125, 4/5CR
- -114 -10 868.5MHz, SF9BW125, 4/5CR
- -128 -14 868.5MHz, SF9BW125, 4/5CR
2026-05-06 19:22:58 13.625°C 75.75% 3.34V v4 No position 3656 ttn.v3 - -97 3.25 867.7MHz, SF9BW125, 4/5CR
- -110 -9.25 867.7MHz, SF9BW125, 4/5CR
- -115 -10.75 867.7MHz, SF9BW125, 4/5CR
2026-05-06 19:06:44 13.75°C 76.0625% 3.34V v4 No position 3655 ttn.v3 - -113 -9 868.3MHz, SF9BW125, 4/5CR
2026-05-06 18:50:30 13.875°C 72.4375% 3.34V v4 No position 3654 ttn.v3 - -113 -11.5 867.5MHz, SF9BW125, 4/5CR
- -112 -11.5 867.5MHz, SF9BW125, 4/5CR
2026-05-06 18:34:15 14.125°C 72.0625% 3.34V v4 No position 3653 ttn.v3 - -103 1.75 868.1MHz, SF9BW125, 4/5CR
- -116 -6 868.1MHz, SF9BW125, 4/5CR
- -125 -9 868.1MHz, SF9BW125, 4/5CR
- -114 -11.75 868.1MHz, SF9BW125, 4/5CR
2026-05-06 18:18:01 14.3125°C 73.6875% 3.34V v4 No position 3652 ttn.v3 - -95 3.25 867.3MHz, SF9BW125, 4/5CR
- -119 -9.75 867.3MHz, SF9BW125, 4/5CR
- -114 -9.75 867.3MHz, SF9BW125, 4/5CR
2026-05-06 18:01:47 14.375°C 71.25% 3.34V v4 No position 3651 ttn.v3 - -93 -8.5 868.5MHz, SF9BW125, 4/5CR
- -110 -11 868.5MHz, SF9BW125, 4/5CR
- -128 -14 868.5MHz, SF9BW125, 4/5CR
2026-05-06 17:45:32 14.5°C 71.4375% 3.34V v4 No position 3650 ttn.v3 - -101 -1.5 867.1MHz, SF9BW125, 4/5CR
- -113 -10 867.1MHz, SF9BW125, 4/5CR
2026-05-06 17:29:18 14.5°C 70.6875% 3.34V v4 No position 3649 ttn.v3 - -109 -6 868.3MHz, SF9BW125, 4/5CR
- -115 -10.75 868.3MHz, SF9BW125, 4/5CR
2026-05-06 17:13:04 14.375°C 73.6875% 3.34V v4 No position 3648 ttn.v3 - -98 4.75 867.9MHz, SF9BW125, 4/5CR

Message count: 200
Node count: 1

Messages per node

Number of messages in list aboveNodes
200

Statistics per gateway

GatewayNumber of messagesNumber of nodesNodes
1221 (2.794km)
1181
1031
251
181
121
101 (5.041km)
21
11

Filter by dataset